Main page
METAR-TAF:

METAR-TAF

Airports :

Bandırma Airport

Bandirma, Turkey

latitude: 40-19N, longitude: 027-58E, elevation: 51 m

METAR: missing

Time: 06:43 (03:43 UTC)

Forecast

The report was made 14 hours and 3 minutes ago, at 13:40 UTC
Forecast valid from 02 at 15 UTC to 02 at 24 UTC
Wind 2 kt from variable directions
Visibility 10 km or more
Scattered clouds at a height of 3500 ft
Broken clouds at a height of 10000 ft
Temporary
from 02 at 15 UTC to 02 at 19 UTC
Wind 15 kt from the North/Northeast
Few clouds at a height of 2700 ft, Cumulonimbus.
Broken clouds at a height of 3000 ft
Broken clouds at a height of 9000 ft
thunderstorm, light rain

TAF: LTBG 021340Z 0215/0224 VRB02KT 9999 SCT035 BKN100 TEMPO 0215/0219 03015KT -TSRA FEW027CB BKN030 BKN090

Weather observations and forecasts of more than 4000 airports (METAR and TAF reports).

The available stations are represented by yellow and red dots on the map.

Hover mouse over dot to see the name of the station.

Then click to see weather observations and forecasts.

To change the map : click on the green buttons with a black cross to zoom in, on the green button with a dash to zoom out, or on the green arrows for adjacent maps.


METAR-TAF: